Time;durP1;ratioP1;P1;durP2;ratioP2;P2;SDS_P1;SDS_P2;PMS_P1;PMS_P2;Temp;Humidity;BMP_temperature;BMP_pressure;BME280_temperature;BME280_humidity;BME280_pressure;Samples;Min_cycle;Max_cycle;Signal;HPM_P1;HPM_P2
2022/09/26 00:01:37;;;;;;;;;;;10.70;99.90;;;;;;5052326;28;19921;-69
2022/09/26 00:04:05;;;;;;;;;;;10.70;99.90;;;;;;5035683;28;19924;-69
2022/09/26 00:06:30;;;;;;;;;;;10.70;99.90;;;;;;5052140;28;19921;-69
2022/09/26 00:08:56;;;;;;;;;;;10.70;99.90;;;;;;5053679;28;19935;-69
2022/09/26 00:11:24;;;;;;;;;;;10.60;99.90;;;;;;5069074;28;20366;-69
2022/09/26 00:13:54;;;;;;;;;;;10.60;99.90;;;;;;5051834;28;19932;-69
2022/09/26 00:16:20;;;;;;;;;;;10.60;99.90;;;;;;5043149;28;19948;-69
2022/09/26 00:18:49;;;;;;;;;;;10.60;99.90;;;;;;5048077;28;20390;-69
2022/09/26 00:21:15;;;;;;;;;;;10.50;99.90;;;;;;5052313;28;19921;-69
2022/09/26 00:23:41;;;;;;;;;;;10.50;99.90;;;;;;5052142;28;20309;-69
2022/09/26 00:26:06;;;;;;;;;;;10.50;99.90;;;;;;5052519;28;20469;-69
2022/09/26 00:28:32;;;;;;;;;;;10.50;99.90;;;;;;5052432;28;19931;-69
2022/09/26 00:31:04;;;;;;;;;;;10.50;99.90;;;;;;5048834;28;20588;-69
2022/09/26 00:33:29;;;;;;;;;;;10.50;99.90;;;;;;5032416;28;19931;-69
2022/09/26 00:35:55;;;;;;;;;;;10.50;99.90;;;;;;5049038;28;19921;-69
2022/09/26 00:38:21;;;;;;;;;;;10.50;99.90;;;;;;5051894;28;20538;-69
2022/09/26 00:40:47;;;;;;;;;;;10.50;99.90;;;;;;5052165;28;19925;-69
2022/09/26 00:43:31;;;;;;;;;;;10.50;99.90;;;;;;5051736;28;20382;-69
2022/09/26 00:46:15;;;;;;;;;;;10.50;99.90;;;;;;5052074;28;20336;-70
2022/09/26 00:48:42;;;;;;;;;;;10.50;99.90;;;;;;5042572;28;20351;-69
2022/09/26 00:51:08;;;;;;;;;;;10.50;99.90;;;;;;5038206;28;19933;-69
2022/09/26 00:53:37;;;;;;;;;;;10.50;99.90;;;;;;5051886;28;20254;-69
2022/09/26 00:56:06;;;;;;;;;;;10.50;99.90;;;;;;5052964;28;19927;-69
2022/09/26 00:58:34;;;;;;;;;;;10.50;99.90;;;;;;5045879;28;19942;-69
2022/09/26 01:01:00;;;;;;;;;;;10.50;99.90;;;;;;5050381;28;19925;-69
2022/09/26 01:03:26;;;;;;;;;;;10.50;99.90;;;;;;5051708;28;19931;-69
2022/09/26 01:05:52;;;;;;;;;;;10.40;99.90;;;;;;5050780;28;20374;-69
2022/09/26 01:08:25;;;;;;;;;;;10.40;99.90;;;;;;5051015;28;19925;-69
2022/09/26 01:10:50;;;;;;;;;;;10.40;99.90;;;;;;5052530;28;19929;-69
2022/09/26 01:13:15;;;;;;;;;;;10.40;99.90;;;;;;5051255;28;19967;-69
2022/09/26 01:15:41;;;;;;;;;;;10.40;99.90;;;;;;5051006;28;20285;-69
2022/09/26 01:18:07;;;;;;;;;;;10.30;99.90;;;;;;5050845;28;20015;-69
2022/09/26 01:20:35;;;;;;;;;;;10.30;99.90;;;;;;5034338;28;19927;-69
2022/09/26 01:23:04;;;;;;;;;;;10.30;99.90;;;;;;5038885;28;19921;-69
2022/09/26 01:25:41;;;;;;;;;;;10.20;99.90;;;;;;5036149;28;19928;-69
2022/09/26 01:28:09;;;;;;;;;;;10.20;99.90;;;;;;5051268;28;20496;-69
2022/09/26 01:30:55;;;;;;;;;;;10.30;99.90;;;;;;5051077;28;19952;-69
2022/09/26 01:33:20;;;;;;;;;;;10.30;99.90;;;;;;5040257;28;19921;-69
2022/09/26 01:36:05;;;;;;;;;;;10.30;99.90;;;;;;5050800;28;19932;-69
2022/09/26 01:38:50;;;;;;;;;;;10.30;99.90;;;;;;5050952;28;20274;-69
2022/09/26 01:41:29;;;;;;;;;;;10.40;99.90;;;;;;5030847;28;20003;-69
2022/09/26 01:44:09;;;;;;;;;;;10.40;99.90;;;;;;5047589;28;19968;-69
2022/09/26 01:46:40;;;;;;;;;;;10.50;99.90;;;;;;5050553;28;19924;-69
2022/09/26 01:49:05;;;;;;;;;;;10.50;99.90;;;;;;5051850;28;20581;-69
2022/09/26 01:51:57;;;;;;;;;;;10.50;99.90;;;;;;5050363;28;19925;-69
2022/09/26 01:54:26;;;;;;;;;;;10.60;99.90;;;;;;5049262;28;19931;-69
2022/09/26 01:56:53;;;;;;;;;;;10.60;99.90;;;;;;5040052;28;19936;-69
2022/09/26 01:59:24;;;;;;;;;;;10.60;99.90;;;;;;5038909;28;19921;-69
2022/09/26 02:01:51;;;;;;;;;;;10.60;99.90;;;;;;5046591;28;19921;-69
2022/09/26 02:04:20;;;;;;;;;;;10.70;99.90;;;;;;5050728;28;19924;-69
2022/09/26 02:06:54;;;;;;;;;;;10.70;99.90;;;;;;5050500;28;20008;-69
2022/09/26 02:09:25;;;;;;;;;;;10.70;99.90;;;;;;5050541;28;19925;-69
2022/09/26 02:11:52;;;;;;;;;;;10.70;99.90;;;;;;5050310;28;19924;-69
2022/09/26 02:14:20;;;;;;;;;;;10.70;99.90;;;;;;5036238;28;19944;-69
2022/09/26 02:16:48;;;;;;;;;;;10.80;99.90;;;;;;5053921;28;20538;-69
2022/09/26 02:19:15;;;;;;;;;;;10.80;99.90;;;;;;5050844;28;19976;-69
2022/09/26 02:21:42;;;;;;;;;;;10.80;99.90;;;;;;5050657;28;19963;-69
2022/09/26 02:24:07;;;;;;;;;;;10.80;99.90;;;;;;5051701;28;19956;-69
2022/09/26 02:26:33;;;;;;;;;;;10.80;99.90;;;;;;5034021;28;20270;-69
2022/09/26 02:28:59;;;;;;;;;;;10.80;99.90;;;;;;5051523;28;19920;-69
2022/09/26 02:31:26;;;;;;;;;;;10.80;99.90;;;;;;5054021;28;19925;-69
2022/09/26 02:33:52;;;;;;;;;;;10.80;99.90;;;;;;5054464;28;19943;-68
2022/09/26 02:36:18;;;;;;;;;;;10.80;99.90;;;;;;5054205;28;19921;-69
2022/09/26 02:38:44;;;;;;;;;;;10.80;99.90;;;;;;5054470;28;19925;-69
2022/09/26 02:41:10;;;;;;;;;;;10.80;99.90;;;;;;5053991;28;19956;-69
2022/09/26 02:43:43;;;;;;;;;;;10.80;99.90;;;;;;5054079;28;19956;-69
2022/09/26 02:46:17;;;;;;;;;;;10.90;99.90;;;;;;5054141;28;19932;-69
2022/09/26 02:48:49;;;;;;;;;;;10.90;99.90;;;;;;5053822;28;20604;-69
2022/09/26 02:51:32;;;;;;;;;;;10.80;99.90;;;;;;5053110;28;19929;-70
2022/09/26 02:54:13;;;;;;;;;;;10.90;99.90;;;;;;5053377;28;19921;-71
2022/09/26 02:56:57;;;;;;;;;;;10.90;99.90;;;;;;5053907;28;19963;-71
2022/09/26 02:59:40;;;;;;;;;;;10.90;99.90;;;;;;5054143;28;20271;-70
2022/09/26 03:02:05;;;;;;;;;;;10.90;99.90;;;;;;5050717;28;20314;-70
2022/09/26 03:04:34;;;;;;;;;;;10.80;99.90;;;;;;5046065;28;19921;-70
2022/09/26 03:07:01;;;;;;;;;;;10.80;99.90;;;;;;5034848;28;19949;-68
2022/09/26 03:09:28;;;;;;;;;;;10.80;99.90;;;;;;5053758;28;19924;-71
2022/09/26 03:11:54;;;;;;;;;;;10.80;99.90;;;;;;5053479;28;19951;-69
2022/09/26 03:14:22;;;;;;;;;;;10.80;99.90;;;;;;5053532;28;19927;-69
2022/09/26 03:16:49;;;;;;;;;;;10.80;99.90;;;;;;5052486;28;20011;-69
2022/09/26 03:19:35;;;;;;;;;;;10.80;99.90;;;;;;5033460;28;19921;-69
2022/09/26 03:22:01;;;;;;;;;;;10.80;99.90;;;;;;5045291;28;19986;-69
2022/09/26 03:24:27;;;;;;;;;;;10.80;99.90;;;;;;5045065;22;19929;-69
2022/09/26 03:26:54;;;;;;;;;;;10.80;99.90;;;;;;5025638;28;19928;-70
2022/09/26 03:29:19;;;;;;;;;;;10.80;99.90;;;;;;5034221;28;19990;-69
2022/09/26 03:31:45;;;;;;;;;;;10.70;99.90;;;;;;5033687;28;20548;-70
2022/09/26 03:34:11;;;;;;;;;;;10.70;99.90;;;;;;5033959;28;19921;-69
2022/09/26 03:36:36;;;;;;;;;;;10.70;99.90;;;;;;5034228;28;20362;-70
2022/09/26 03:39:02;;;;;;;;;;;10.70;99.90;;;;;;5034096;28;20377;-69
2022/09/26 03:41:27;;;;;;;;;;;10.70;99.90;;;;;;5015595;28;19925;-69
2022/09/26 03:43:54;;;;;;;;;;;10.70;99.90;;;;;;5017419;28;20366;-69
2022/09/26 03:46:20;;;;;;;;;;;10.70;99.90;;;;;;5033749;28;19928;-70
2022/09/26 03:48:45;;;;;;;;;;;10.70;99.90;;;;;;5033574;28;19921;-69
2022/09/26 03:51:12;;;;;;;;;;;10.70;99.90;;;;;;5033359;28;20264;-69
2022/09/26 03:53:39;;;;;;;;;;;10.70;99.90;;;;;;5021261;28;19921;-69
2022/09/26 03:56:05;;;;;;;;;;;10.70;99.90;;;;;;5014802;28;19956;-70
2022/09/26 03:58:31;;;;;;;;;;;10.70;99.90;;;;;;5043768;28;19925;-69
2022/09/26 04:01:01;;;;;;;;;;;10.70;99.90;;;;;;5031969;28;19921;-69
2022/09/26 04:03:27;;;;;;;;;;;10.70;99.90;;;;;;5017492;28;20453;-70
2022/09/26 04:05:52;;;;;;;;;;;10.70;99.90;;;;;;4997153;28;19921;-69
2022/09/26 04:08:18;;;;;;;;;;;10.70;99.90;;;;;;5013423;28;20000;-69
2022/09/26 04:10:43;;;;;;;;;;;10.70;99.90;;;;;;5013214;28;19929;-69
2022/09/26 04:13:09;;;;;;;;;;;10.70;99.90;;;;;;5026253;28;19924;-69
2022/09/26 04:15:34;;;;;;;;;;;10.70;99.90;;;;;;5015734;28;20264;-69
2022/09/26 04:18:00;;;;;;;;;;;10.70;99.90;;;;;;5032886;28;19921;-69
2022/09/26 04:20:25;;;;;;;;;;;10.70;99.90;;;;;;5034188;28;19972;-69
2022/09/26 04:22:51;;;;;;;;;;;10.70;99.90;;;;;;5033035;28;19932;-70
2022/09/26 04:25:16;;;;;;;;;;;10.70;99.90;;;;;;5032702;28;20394;-70
2022/09/26 04:27:42;;;;;;;;;;;10.70;99.90;;;;;;5022428;28;19922;-69
2022/09/26 04:30:08;;;;;;;;;;;10.70;99.90;;;;;;5025146;28;20375;-69
2022/09/26 04:32:34;;;;;;;;;;;10.70;99.90;;;;;;5024256;28;19925;-70
2022/09/26 04:34:59;;;;;;;;;;;10.60;99.90;;;;;;5012708;28;20415;-70
2022/09/26 04:37:25;;;;;;;;;;;10.70;99.90;;;;;;5012750;28;19922;-69
2022/09/26 04:39:50;;;;;;;;;;;10.60;99.90;;;;;;5020595;28;20310;-69
2022/09/26 04:42:16;;;;;;;;;;;10.60;99.90;;;;;;5032230;28;19921;-69
2022/09/26 04:44:42;;;;;;;;;;;10.70;99.90;;;;;;5015803;28;19921;-69
2022/09/26 04:47:08;;;;;;;;;;;10.60;99.90;;;;;;5048684;28;19968;-69
2022/09/26 04:49:33;;;;;;;;;;;10.60;99.90;;;;;;5031775;28;20435;-69
2022/09/26 04:51:59;;;;;;;;;;;10.60;99.90;;;;;;5031845;28;19998;-70
2022/09/26 04:54:25;;;;;;;;;;;10.60;99.90;;;;;;5031775;28;20318;-69
2022/09/26 04:56:50;;;;;;;;;;;10.70;99.90;;;;;;5032602;28;20351;-69
2022/09/26 04:59:16;;;;;;;;;;;10.60;99.90;;;;;;5032106;28;19929;-69
2022/09/26 05:01:41;;;;;;;;;;;10.60;99.90;;;;;;5033493;28;19925;-69
2022/09/26 05:04:08;;;;;;;;;;;10.60;99.90;;;;;;5013635;28;19922;-69
2022/09/26 05:06:34;;;;;;;;;;;10.60;99.90;;;;;;5017174;28;19921;-69
2022/09/26 05:08:59;;;;;;;;;;;10.60;99.90;;;;;;5015224;28;19971;-69
2022/09/26 05:11:25;;;;;;;;;;;10.70;99.90;;;;;;5031798;28;20414;-69
2022/09/26 05:13:50;;;;;;;;;;;10.60;99.90;;;;;;5031599;28;19921;-69
2022/09/26 05:16:18;;;;;;;;;;;10.60;99.90;;;;;;5031740;28;19929;-70
2022/09/26 05:18:43;;;;;;;;;;;10.70;99.90;;;;;;5031771;28;19922;-69
2022/09/26 05:21:09;;;;;;;;;;;10.60;99.90;;;;;;5031090;28;19947;-69
2022/09/26 05:26:32;;;;;;;;;;;10.70;99.90;;;;;;4989415;28;19925;-69
2022/09/26 05:29:03;;;;;;;;;;;10.70;99.90;;;;;;5012041;28;19921;-69
2022/09/26 05:31:31;;;;;;;;;;;10.70;99.90;;;;;;5011822;28;19929;-69
2022/09/26 05:33:57;;;;;;;;;;;10.70;99.90;;;;;;5012019;28;19927;-69
2022/09/26 05:36:23;;;;;;;;;;;10.70;99.90;;;;;;5012350;28;20016;-69
2022/09/26 05:38:49;;;;;;;;;;;10.70;99.90;;;;;;5013115;28;20355;-69
2022/09/26 05:41:15;;;;;;;;;;;10.70;99.90;;;;;;5019201;28;19961;-69
2022/09/26 05:43:40;;;;;;;;;;;10.60;99.90;;;;;;4996739;28;19944;-69
2022/09/26 05:46:07;;;;;;;;;;;10.60;99.90;;;;;;5031505;28;19921;-69
2022/09/26 05:48:34;;;;;;;;;;;10.60;99.90;;;;;;5014062;28;19932;-69
2022/09/26 05:51:05;;;;;;;;;;;10.60;99.90;;;;;;5021986;28;20024;-69
2022/09/26 05:53:31;;;;;;;;;;;10.60;99.90;;;;;;5022506;28;20372;-69
2022/09/26 05:55:56;;;;;;;;;;;10.60;99.90;;;;;;5012397;28;19922;-69
2022/09/26 05:58:22;;;;;;;;;;;10.60;99.90;;;;;;5027789;28;20330;-69
2022/09/26 06:00:50;;;;;;;;;;;10.60;99.90;;;;;;5027812;28;19957;-69
2022/09/26 06:03:16;;;;;;;;;;;10.60;99.90;;;;;;5027824;28;20613;-69
2022/09/26 06:05:42;;;;;;;;;;;10.60;99.90;;;;;;5013068;28;19921;-69
2022/09/26 06:08:08;;;;;;;;;;;10.70;99.90;;;;;;5012348;28;19944;-69
2022/09/26 06:10:34;;;;;;;;;;;10.70;99.90;;;;;;5011977;28;20472;-69
2022/09/26 06:13:01;;;;;;;;;;;10.70;99.90;;;;;;5031477;28;20266;-68
2022/09/26 06:15:28;;;;;;;;;;;10.70;99.90;;;;;;5003169;28;20004;-68
2022/09/26 06:17:58;;;;;;;;;;;10.70;99.90;;;;;;5012080;28;20013;-69
2022/09/26 06:20:24;;;;;;;;;;;10.70;99.90;;;;;;5047551;28;19991;-69
2022/09/26 06:22:49;;;;;;;;;;;10.70;99.90;;;;;;5030528;28;19922;-69
2022/09/26 06:25:15;;;;;;;;;;;10.70;99.90;;;;;;5014179;28;20283;-69
2022/09/26 06:27:41;;;;;;;;;;;10.70;99.90;;;;;;5011166;28;19929;-69
2022/09/26 06:30:07;;;;;;;;;;;10.70;99.90;;;;;;5010749;28;20279;-69
2022/09/26 06:32:32;;;;;;;;;;;10.70;99.90;;;;;;5023839;28;19921;-69
2022/09/26 06:34:58;;;;;;;;;;;10.70;99.90;;;;;;5030541;28;19934;-69
2022/09/26 06:37:23;;;;;;;;;;;10.70;99.90;;;;;;5030528;28;20505;-69
2022/09/26 06:39:49;;;;;;;;;;;10.70;99.90;;;;;;5030509;28;19921;-69
2022/09/26 06:42:14;;;;;;;;;;;10.70;99.90;;;;;;5019220;28;19925;-69
2022/09/26 06:44:40;;;;;;;;;;;10.70;99.90;;;;;;5011076;28;19925;-69
2022/09/26 06:47:05;;;;;;;;;;;10.70;99.90;;;;;;5011330;28;19929;-69
2022/09/26 06:49:33;;;;;;;;;;;10.70;99.90;;;;;;5024798;28;20344;-69
2022/09/26 06:51:59;;;;;;;;;;;10.70;99.90;;;;;;4994397;28;19972;-69
2022/09/26 06:54:26;;;;;;;;;;;10.70;99.90;;;;;;5010683;28;19927;-68
2022/09/26 06:56:51;;;;;;;;;;;10.70;99.90;;;;;;5010609;28;19922;-69
2022/09/26 06:59:17;;;;;;;;;;;10.70;99.90;;;;;;5010833;28;19945;-68
2022/09/26 07:01:45;;;;;;;;;;;10.70;99.90;;;;;;5018164;28;20004;-68
2022/09/26 07:04:10;;;;;;;;;;;10.70;99.90;;;;;;5027283;28;19921;-68
2022/09/26 07:06:37;;;;;;;;;;;10.70;99.90;;;;;;5021833;28;20016;-69
2022/09/26 07:09:02;;;;;;;;;;;10.70;99.90;;;;;;5031920;28;19921;-69
2022/09/26 07:11:28;;;;;;;;;;;10.60;99.90;;;;;;5030202;28;19975;-69
2022/09/26 07:13:53;;;;;;;;;;;10.70;99.90;;;;;;5030288;28;19929;-69
2022/09/26 07:16:19;;;;;;;;;;;10.70;99.90;;;;;;5015440;28;19928;-69
2022/09/26 07:18:45;;;;;;;;;;;10.70;99.90;;;;;;5017384;28;19929;-69
2022/09/26 07:21:10;;;;;;;;;;;10.70;99.90;;;;;;5034042;28;19991;-69
2022/09/26 07:23:36;;;;;;;;;;;10.70;99.90;;;;;;5016864;28;20390;-69
2022/09/26 07:26:01;;;;;;;;;;;10.70;99.90;;;;;;5017404;28;20266;-69
2022/09/26 07:28:27;;;;;;;;;;;10.70;99.90;;;;;;5033948;28;19921;-69
2022/09/26 07:30:56;;;;;;;;;;;10.70;99.90;;;;;;5016900;28;19932;-69
2022/09/26 07:33:22;;;;;;;;;;;10.70;99.90;;;;;;5033890;28;19967;-69
2022/09/26 07:35:47;;;;;;;;;;;10.70;99.90;;;;;;5033927;28;19921;-69
2022/09/26 07:38:13;;;;;;;;;;;10.70;99.90;;;;;;5033662;28;19922;-69
2022/09/26 07:40:39;;;;;;;;;;;10.70;99.90;;;;;;5018566;28;20359;-70
2022/09/26 07:43:04;;;;;;;;;;;10.70;99.90;;;;;;5027788;28;19975;-70
2022/09/26 07:50:58;;;;;;;;;;;10.80;99.90;;;;;;5033031;28;20612;-70
2022/09/26 07:53:25;;;;;;;;;;;10.80;99.90;;;;;;5046754;28;19942;-70
2022/09/26 07:56:06;;;;;;;;;;;10.80;99.90;;;;;;5036416;28;19929;-70
2022/09/26 07:58:32;;;;;;;;;;;10.80;99.90;;;;;;5014316;28;19967;-70
2022/09/26 08:00:58;;;;;;;;;;;10.90;99.90;;;;;;5033876;28;19928;-70
2022/09/26 08:03:26;;;;;;;;;;;10.90;99.90;;;;;;5016739;28;19921;-70
2022/09/26 08:05:55;;;;;;;;;;;10.90;99.90;;;;;;5023270;28;19921;-70
2022/09/26 08:08:21;;;;;;;;;;;11.00;99.90;;;;;;5019286;28;19925;-70
2022/09/26 08:10:46;;;;;;;;;;;11.00;99.90;;;;;;5026071;28;19932;-70
2022/09/26 08:13:11;;;;;;;;;;;11.10;99.90;;;;;;5021249;28;19935;-70
2022/09/26 08:15:37;;;;;;;;;;;11.10;99.90;;;;;;5032830;28;19971;-70
2022/09/26 08:18:03;;;;;;;;;;;11.20;99.90;;;;;;5033137;28;20383;-70
2022/09/26 08:20:28;;;;;;;;;;;11.20;99.90;;;;;;5033115;28;20032;-70
2022/09/26 08:22:54;;;;;;;;;;;11.20;99.90;;;;;;5018972;28;19922;-70
2022/09/26 08:25:20;;;;;;;;;;;11.30;99.90;;;;;;5029740;28;20291;-70
2022/09/26 08:27:47;;;;;;;;;;;11.30;99.90;;;;;;5036690;28;19922;-70
2022/09/26 08:30:13;;;;;;;;;;;11.30;99.90;;;;;;5031826;28;19925;-70
2022/09/26 08:32:38;;;;;;;;;;;11.30;99.90;;;;;;5036683;28;19983;-69
2022/09/26 08:35:05;;;;;;;;;;;11.30;99.90;;;;;;5033539;28;19948;-70
2022/09/26 08:37:30;;;;;;;;;;;11.30;99.90;;;;;;5031913;28;19957;-70
2022/09/26 08:39:56;;;;;;;;;;;11.30;99.90;;;;;;5014573;28;20021;-70
2022/09/26 08:42:40;;;;;;;;;;;11.40;99.90;;;;;;5022847;28;19921;-69
2022/09/26 08:48:15;;;;;;;;;;;11.30;99.90;;;;;;5042895;28;19925;-70
2022/09/26 08:50:40;;;;;;;;;;;11.30;99.90;;;;;;5045065;28;20006;-70
2022/09/26 08:53:18;;;;;;;;;;;11.40;99.90;;;;;;5043642;28;19949;-70
2022/09/26 08:55:46;;;;;;;;;;;11.40;99.90;;;;;;5032408;28;19933;-70
2022/09/26 08:58:21;;;;;;;;;;;11.40;99.90;;;;;;5027004;28;19925;-70
2022/09/26 09:00:50;;;;;;;;;;;11.40;99.90;;;;;;5014427;28;19926;-70
2022/09/26 09:03:26;;;;;;;;;;;11.50;99.90;;;;;;5025363;28;20293;-69
2022/09/26 09:05:54;;;;;;;;;;;11.50;99.90;;;;;;5016674;28;20559;-69
2022/09/26 09:08:43;;;;;;;;;;;11.60;99.90;;;;;;5018756;28;19934;-69
2022/09/26 09:11:27;;;;;;;;;;;11.70;99.90;;;;;;5009670;28;19929;-69
2022/09/26 09:14:03;;;;;;;;;;;11.80;99.90;;;;;;5012412;28;20007;-69
2022/09/26 09:16:50;;;;;;;;;;;11.80;99.90;;;;;;5008446;28;20362;-69
2022/09/26 09:19:16;;;;;;;;;;;11.80;99.90;;;;;;5031013;28;19925;-69
2022/09/26 09:22:00;;;;;;;;;;;11.90;99.90;;;;;;5031481;28;19921;-69
2022/09/26 09:24:39;;;;;;;;;;;12.00;99.90;;;;;;5032216;28;19948;-69
2022/09/26 09:27:10;;;;;;;;;;;12.00;99.90;;;;;;5007735;28;19970;-69
2022/09/26 09:29:46;;;;;;;;;;;12.00;99.90;;;;;;5020383;28;20316;-69
2022/09/26 09:32:15;;;;;;;;;;;12.00;99.90;;;;;;5029251;28;19925;-69
2022/09/26 09:34:41;;;;;;;;;;;12.00;99.90;;;;;;5012203;28;19971;-70
2022/09/26 09:37:14;;;;;;;;;;;12.00;99.90;;;;;;5019181;28;19921;-69
2022/09/26 09:39:41;;;;;;;;;;;12.10;99.90;;;;;;5019632;28;19921;-69
2022/09/26 09:42:22;;;;;;;;;;;12.10;99.90;;;;;;5015972;28;19922;-70
2022/09/26 09:44:57;;;;;;;;;;;12.10;99.90;;;;;;5017350;28;20014;-69
2022/09/26 09:47:25;;;;;;;;;;;12.20;99.90;;;;;;5030679;28;19929;-70
2022/09/26 09:49:51;;;;;;;;;;;12.20;99.90;;;;;;5018773;28;19929;-69
2022/09/26 09:52:23;;;;;;;;;;;12.30;99.90;;;;;;5024398;28;19933;-68
2022/09/26 09:54:51;;;;;;;;;;;12.20;99.90;;;;;;5021041;28;19925;-68
2022/09/26 09:57:35;;;;;;;;;;;12.20;99.90;;;;;;5022823;28;19944;-68
2022/09/26 10:00:10;;;;;;;;;;;12.20;99.90;;;;;;5011639;28;19922;-68
2022/09/26 10:02:40;;;;;;;;;;;12.20;99.90;;;;;;5023783;28;19921;-69
2022/09/26 10:05:17;;;;;;;;;;;12.20;99.90;;;;;;5028408;28;19927;-69
2022/09/26 10:07:48;;;;;;;;;;;12.20;99.90;;;;;;5022395;28;20854;-69
2022/09/26 10:10:23;;;;;;;;;;;12.20;99.90;;;;;;5027114;28;19984;-69
2022/09/26 10:12:50;;;;;;;;;;;12.10;99.90;;;;;;4995089;28;19952;-69
2022/09/26 10:15:20;;;;;;;;;;;12.20;99.90;;;;;;5012098;28;19972;-69
2022/09/26 10:17:59;;;;;;;;;;;12.20;99.90;;;;;;5026491;28;19925;-69
2022/09/26 10:20:34;;;;;;;;;;;12.20;99.90;;;;;;5011418;28;19928;-69
2022/09/26 10:23:00;;;;;;;;;;;12.30;99.90;;;;;;5016203;28;19928;-69
2022/09/26 10:25:26;;;;;;;;;;;12.30;99.90;;;;;;5030662;28;19925;-69
2022/09/26 10:27:54;;;;;;;;;;;12.20;99.90;;;;;;5067724;28;19982;-69
2022/09/26 10:30:24;;;;;;;;;;;12.30;99.90;;;;;;5038527;28;20254;-69
2022/09/26 10:32:52;;;;;;;;;;;12.30;99.90;;;;;;5031343;28;20271;-69
2022/09/26 10:35:17;;;;;;;;;;;12.30;99.90;;;;;;5031087;28;20551;-69
2022/09/26 10:38:04;;;;;;;;;;;12.30;99.90;;;;;;5030763;28;20008;-69
2022/09/26 10:40:44;;;;;;;;;;;12.40;99.90;;;;;;5028197;28;20646;-69
2022/09/26 10:43:17;;;;;;;;;;;12.50;99.90;;;;;;5028963;28;20016;-69
2022/09/26 10:45:42;;;;;;;;;;;12.50;99.90;;;;;;5022003;28;19925;-69
2022/09/26 10:48:10;;;;;;;;;;;12.40;99.90;;;;;;5012992;28;20256;-69
2022/09/26 10:50:35;;;;;;;;;;;12.40;99.90;;;;;;5032290;28;19936;-69
2022/09/26 10:53:07;;;;;;;;;;;12.40;99.90;;;;;;5034594;28;20366;-69
2022/09/26 10:55:48;;;;;;;;;;;12.50;99.90;;;;;;5034656;28;20501;-69
2022/09/26 10:58:17;;;;;;;;;;;12.40;99.90;;;;;;5034470;28;19921;-69
2022/09/26 11:00:43;;;;;;;;;;;12.40;99.90;;;;;;5018039;28;20378;-69
2022/09/26 11:03:12;;;;;;;;;;;12.30;99.90;;;;;;5031963;28;19925;-70
2022/09/26 11:05:59;;;;;;;;;;;12.30;99.90;;;;;;5012890;28;19956;-69
2022/09/26 11:08:36;;;;;;;;;;;12.30;99.90;;;;;;5013919;28;20307;-69
2022/09/26 11:11:03;;;;;;;;;;;12.30;99.90;;;;;;5018550;28;19925;-69
2022/09/26 11:13:37;;;;;;;;;;;12.30;99.90;;;;;;5014207;28;20304;-70
2022/09/26 11:16:08;;;;;;;;;;;12.20;99.90;;;;;;5013806;28;19931;-69
2022/09/26 11:18:49;;;;;;;;;;;12.20;99.90;;;;;;5013965;28;20019;-69
2022/09/26 11:21:14;;;;;;;;;;;12.20;99.90;;;;;;5024243;28;20434;-69
2022/09/26 11:23:45;;;;;;;;;;;12.10;99.90;;;;;;5033532;28;20038;-69
2022/09/26 11:26:20;;;;;;;;;;;12.20;99.90;;;;;;5033173;28;20585;-69
2022/09/26 11:28:50;;;;;;;;;;;12.10;99.90;;;;;;5026235;28;19929;-69
2022/09/26 11:31:27;;;;;;;;;;;12.10;99.90;;;;;;5032603;28;19930;-69
2022/09/26 11:33:53;;;;;;;;;;;12.10;99.90;;;;;;5026205;28;19921;-70
2022/09/26 11:36:34;;;;;;;;;;;12.20;99.90;;;;;;5032862;28;20016;-70
2022/09/26 11:39:17;;;;;;;;;;;12.20;99.90;;;;;;5015702;28;19922;-70
2022/09/26 11:41:48;;;;;;;;;;;12.20;99.90;;;;;;4997123;28;19926;-70
2022/09/26 11:44:23;;;;;;;;;;;12.20;99.90;;;;;;5015216;28;19961;-70
2022/09/26 11:46:48;;;;;;;;;;;12.20;99.90;;;;;;5026744;28;19980;-70
2022/09/26 11:49:32;;;;;;;;;;;12.20;99.90;;;;;;5013274;28;19925;-70
2022/09/26 11:52:00;;;;;;;;;;;12.20;99.90;;;;;;5013744;28;19932;-70
2022/09/26 11:54:45;;;;;;;;;;;12.20;99.90;;;;;;5023023;28;19922;-70
2022/09/26 11:57:32;;;;;;;;;;;12.20;99.90;;;;;;5013373;28;19948;-70
2022/09/26 12:00:05;;;;;;;;;;;12.20;99.90;;;;;;5022085;28;19929;-70
2022/09/26 12:02:39;;;;;;;;;;;12.10;99.90;;;;;;5031791;28;20007;-70
2022/09/26 12:05:18;;;;;;;;;;;12.20;99.90;;;;;;5015748;28;19979;-70
2022/09/26 12:07:51;;;;;;;;;;;12.20;99.90;;;;;;5029429;28;20011;-71
2022/09/26 12:10:20;;;;;;;;;;;12.20;99.90;;;;;;5019804;28;20371;-71
2022/09/26 12:12:48;;;;;;;;;;;12.20;99.90;;;;;;5028343;28;19974;-71
2022/09/26 12:15:20;;;;;;;;;;;12.20;99.90;;;;;;5033176;28;19921;-70
2022/09/26 12:18:01;;;;;;;;;;;12.20;99.90;;;;;;5048764;28;20276;-71
2022/09/26 12:20:50;;;;;;;;;;;12.20;99.90;;;;;;5031626;28;19924;-71
2022/09/26 12:23:21;;;;;;;;;;;12.20;99.90;;;;;;5020835;28;19921;-70
2022/09/26 12:25:54;;;;;;;;;;;12.30;99.90;;;;;;5017546;28;20295;-71
2022/09/26 12:28:32;;;;;;;;;;;12.30;99.90;;;;;;5019177;28;19967;-71
2022/09/26 12:31:16;;;;;;;;;;;12.30;99.90;;;;;;5020120;28;19936;-70
2022/09/26 12:33:59;;;;;;;;;;;12.30;99.90;;;;;;5021798;28;20276;-70
2022/09/26 12:36:39;;;;;;;;;;;12.30;99.90;;;;;;5011345;28;20425;-70
2022/09/26 12:39:04;;;;;;;;;;;12.40;99.90;;;;;;5016384;28;20295;-70
2022/09/26 12:41:36;;;;;;;;;;;12.30;99.90;;;;;;5014276;28;19921;-70
2022/09/26 12:44:11;;;;;;;;;;;12.30;99.90;;;;;;5030201;28;19928;-70
2022/09/26 12:46:46;;;;;;;;;;;12.30;99.90;;;;;;5020221;28;19983;-70
2022/09/26 12:49:30;;;;;;;;;;;12.30;99.90;;;;;;5013845;28;19979;-70
2022/09/26 12:52:12;;;;;;;;;;;12.40;99.90;;;;;;5031377;28;19979;-71
2022/09/26 12:54:45;;;;;;;;;;;12.40;99.90;;;;;;5033923;28;20374;-70
2022/09/26 12:57:23;;;;;;;;;;;12.40;99.90;;;;;;5022160;28;19936;-70
2022/09/26 12:59:51;;;;;;;;;;;12.40;99.90;;;;;;5011673;28;20798;-70
2022/09/26 13:02:27;;;;;;;;;;;12.40;99.90;;;;;;5041179;28;19933;-70
2022/09/26 13:05:17;;;;;;;;;;;12.40;99.90;;;;;;5017185;28;19925;-70
2022/09/26 13:07:47;;;;;;;;;;;12.40;99.90;;;;;;5028062;28;20382;-70
2022/09/26 13:10:19;;;;;;;;;;;12.40;99.90;;;;;;5012359;28;19948;-71
2022/09/26 13:12:55;;;;;;;;;;;12.50;99.90;;;;;;5019618;28;19967;-72
2022/09/26 13:15:21;;;;;;;;;;;12.60;99.90;;;;;;5023539;28;20406;-71
2022/09/26 13:17:51;;;;;;;;;;;12.70;99.90;;;;;;5013308;28;19996;-72
2022/09/26 13:20:36;;;;;;;;;;;12.70;99.90;;;;;;5022680;28;19971;-71
2022/09/26 13:23:19;;;;;;;;;;;12.80;99.90;;;;;;5008570;28;19926;-71
2022/09/26 13:25:53;;;;;;;;;;;12.80;99.90;;;;;;4994080;28;19952;-71
2022/09/26 13:28:24;;;;;;;;;;;12.90;99.90;;;;;;5007827;28;19929;-71
2022/09/26 13:30:53;;;;;;;;;;;12.90;99.90;;;;;;5022527;28;19975;-71
2022/09/26 13:33:19;;;;;;;;;;;13.00;99.90;;;;;;5012963;28;19921;-71
2022/09/26 13:35:46;;;;;;;;;;;13.10;99.90;;;;;;5027994;28;19936;-70
2022/09/26 13:38:32;;;;;;;;;;;13.10;99.90;;;;;;5016445;28;20296;-71
2022/09/26 13:41:08;;;;;;;;;;;13.10;99.90;;;;;;5031267;28;19930;-70
2022/09/26 13:43:53;;;;;;;;;;;13.30;99.90;;;;;;5024451;28;19947;-70
2022/09/26 13:46:25;;;;;;;;;;;13.40;99.90;;;;;;5017447;28;19978;-70
2022/09/26 13:48:59;;;;;;;;;;;13.40;99.90;;;;;;5047051;28;19921;-70
2022/09/26 13:51:35;;;;;;;;;;;13.40;99.90;;;;;;5021633;28;19933;-70
2022/09/26 13:54:03;;;;;;;;;;;13.50;99.90;;;;;;5029562;28;20567;-70
2022/09/26 13:56:32;;;;;;;;;;;13.60;99.90;;;;;;5026771;28;20394;-71
2022/09/26 13:59:23;;;;;;;;;;;13.70;99.90;;;;;;5027750;28;20349;-71
2022/09/26 14:02:07;;;;;;;;;;;13.70;99.90;;;;;;5022389;28;19936;-71
2022/09/26 14:04:33;;;;;;;;;;;13.80;99.90;;;;;;5025021;28;19944;-70
2022/09/26 14:09:22;;;;;;;;;;;13.70;99.90;;;;;;5026237;28;20019;-70
2022/09/26 14:10:00;;;;;;;;;;;13.70;99.90;;;;;;5017220;28;19928;-70
2022/09/26 14:12:44;;;;;;;;;;;13.70;99.90;;;;;;5008240;28;19936;-71
2022/09/26 14:15:24;;;;;;;;;;;13.60;99.90;;;;;;5013954;28;19925;-71
2022/09/26 14:17:49;;;;;;;;;;;13.50;99.90;;;;;;5004171;28;19967;-70
2022/09/26 14:20:18;;;;;;;;;;;13.50;99.90;;;;;;5019137;28;19925;-71
2022/09/26 14:22:51;;;;;;;;;;;13.40;99.90;;;;;;5025301;28;19983;-70
2022/09/26 14:25:35;;;;;;;;;;;13.50;99.90;;;;;;5017960;28;19957;-70
2022/09/26 14:28:08;;;;;;;;;;;13.60;99.90;;;;;;5015665;28;20009;-70
2022/09/26 14:30:36;;;;;;;;;;;13.60;99.90;;;;;;5025434;28;20454;-71
2022/09/26 14:33:04;;;;;;;;;;;13.60;99.90;;;;;;5030543;28;19922;-70
2022/09/26 14:35:33;;;;;;;;;;;13.60;99.90;;;;;;5013607;28;19928;-70
2022/09/26 14:38:06;;;;;;;;;;;13.50;99.90;;;;;;5026186;28;19933;-71
2022/09/26 14:40:33;;;;;;;;;;;13.50;99.90;;;;;;5020666;28;19921;-71
2022/09/26 14:43:11;;;;;;;;;;;13.50;99.90;;;;;;5027063;28;20368;-71
2022/09/26 14:45:51;;;;;;;;;;;13.50;99.90;;;;;;5014481;28;19979;-71